sensor_id;sensor_type;location;lat;lon;timestamp;temperature;humidity
4763;DHT22;2395;50.738;7.122;2022-08-30T00:01:32;20.30;99.90
4763;DHT22;2395;50.738;7.122;2022-08-30T00:04:00;20.20;99.90
4763;DHT22;2395;50.738;7.122;2022-08-30T00:06:29;20.10;99.90
4763;DHT22;2395;50.738;7.122;2022-08-30T00:08:56;20.00;99.90
4763;DHT22;2395;50.738;7.122;2022-08-30T00:11:26;20.00;99.90
4763;DHT22;2395;50.738;7.122;2022-08-30T00:13:55;19.90;99.90
4763;DHT22;2395;50.738;7.122;2022-08-30T00:16:23;19.90;99.90
4763;DHT22;2395;50.738;7.122;2022-08-30T00:18:52;19.80;99.90
4763;DHT22;2395;50.738;7.122;2022-08-30T00:21:20;19.70;99.90
4763;DHT22;2395;50.738;7.122;2022-08-30T00:23:47;19.70;99.90
4763;DHT22;2395;50.738;7.122;2022-08-30T00:26:15;19.60;99.90
4763;DHT22;2395;50.738;7.122;2022-08-30T00:28:42;19.50;99.90
4763;DHT22;2395;50.738;7.122;2022-08-30T00:31:09;19.50;99.90
4763;DHT22;2395;50.738;7.122;2022-08-30T00:33:37;19.40;99.90
4763;DHT22;2395;50.738;7.122;2022-08-30T00:36:06;19.40;99.90
4763;DHT22;2395;50.738;7.122;2022-08-30T00:38:33;19.40;99.90
4763;DHT22;2395;50.738;7.122;2022-08-30T00:41:00;19.40;99.90
4763;DHT22;2395;50.738;7.122;2022-08-30T00:43:30;19.40;99.90
4763;DHT22;2395;50.738;7.122;2022-08-30T00:46:00;19.30;99.90
4763;DHT22;2395;50.738;7.122;2022-08-30T00:48:29;19.20;99.90
4763;DHT22;2395;50.738;7.122;2022-08-30T00:50:59;19.10;99.90
4763;DHT22;2395;50.738;7.122;2022-08-30T00:53:34;19.00;99.90
4763;DHT22;2395;50.738;7.122;2022-08-30T00:56:04;19.00;99.90
4763;DHT22;2395;50.738;7.122;2022-08-30T00:58:36;19.10;99.90
4763;DHT22;2395;50.738;7.122;2022-08-30T01:01:06;19.10;99.90
4763;DHT22;2395;50.738;7.122;2022-08-30T01:03:36;19.20;99.90
4763;DHT22;2395;50.738;7.122;2022-08-30T01:06:05;19.20;99.90
4763;DHT22;2395;50.738;7.122;2022-08-30T01:08:34;19.10;99.90
4763;DHT22;2395;50.738;7.122;2022-08-30T01:11:03;19.00;99.90
4763;DHT22;2395;50.738;7.122;2022-08-30T01:13:31;19.00;99.90
4763;DHT22;2395;50.738;7.122;2022-08-30T01:16:00;18.90;99.90
4763;DHT22;2395;50.738;7.122;2022-08-30T01:18:28;18.90;99.90
4763;DHT22;2395;50.738;7.122;2022-08-30T01:21:01;18.80;99.90
4763;DHT22;2395;50.738;7.122;2022-08-30T01:23:38;18.80;99.90
4763;DHT22;2395;50.738;7.122;2022-08-30T01:26:09;18.80;99.90
4763;DHT22;2395;50.738;7.122;2022-08-30T01:28:38;18.80;99.90
4763;DHT22;2395;50.738;7.122;2022-08-30T01:31:06;18.80;99.90
4763;DHT22;2395;50.738;7.122;2022-08-30T01:33:35;18.60;99.90
4763;DHT22;2395;50.738;7.122;2022-08-30T01:36:05;18.60;99.90
4763;DHT22;2395;50.738;7.122;2022-08-30T01:38:41;18.60;99.90
4763;DHT22;2395;50.738;7.122;2022-08-30T01:41:15;18.60;99.90
4763;DHT22;2395;50.738;7.122;2022-08-30T01:43:45;18.60;99.90
4763;DHT22;2395;50.738;7.122;2022-08-30T01:46:15;18.60;99.90
4763;DHT22;2395;50.738;7.122;2022-08-30T01:48:45;18.60;99.90
4763;DHT22;2395;50.738;7.122;2022-08-30T01:51:13;18.60;99.90
4763;DHT22;2395;50.738;7.122;2022-08-30T01:53:43;18.50;99.90
4763;DHT22;2395;50.738;7.122;2022-08-30T01:56:12;18.50;99.90
4763;DHT22;2395;50.738;7.122;2022-08-30T01:58:40;18.40;99.90
4763;DHT22;2395;50.738;7.122;2022-08-30T02:01:11;18.40;99.90
4763;DHT22;2395;50.738;7.122;2022-08-30T02:03:42;18.40;99.90
4763;DHT22;2395;50.738;7.122;2022-08-30T02:06:12;18.40;99.90
4763;DHT22;2395;50.738;7.122;2022-08-30T02:08:46;18.40;99.90
4763;DHT22;2395;50.738;7.122;2022-08-30T02:11:14;18.30;99.90
4763;DHT22;2395;50.738;7.122;2022-08-30T02:13:43;18.20;99.90
4763;DHT22;2395;50.738;7.122;2022-08-30T02:16:13;18.20;99.90
4763;DHT22;2395;50.738;7.122;2022-08-30T02:18:42;18.20;99.90
4763;DHT22;2395;50.738;7.122;2022-08-30T02:21:10;18.20;99.90
4763;DHT22;2395;50.738;7.122;2022-08-30T02:23:39;18.10;99.90
4763;DHT22;2395;50.738;7.122;2022-08-30T02:26:08;18.10;99.90
4763;DHT22;2395;50.738;7.122;2022-08-30T02:28:36;18.20;99.90
4763;DHT22;2395;50.738;7.122;2022-08-30T02:31:03;18.10;99.90
4763;DHT22;2395;50.738;7.122;2022-08-30T02:33:30;18.10;99.90
4763;DHT22;2395;50.738;7.122;2022-08-30T02:35:57;18.20;99.90
4763;DHT22;2395;50.738;7.122;2022-08-30T02:38:25;18.20;99.90
4763;DHT22;2395;50.738;7.122;2022-08-30T02:40:52;18.20;99.90
4763;DHT22;2395;50.738;7.122;2022-08-30T02:43:20;18.20;99.90
4763;DHT22;2395;50.738;7.122;2022-08-30T02:45:47;18.20;99.90
4763;DHT22;2395;50.738;7.122;2022-08-30T02:48:14;18.20;99.90
4763;DHT22;2395;50.738;7.122;2022-08-30T02:50:42;18.10;99.90
4763;DHT22;2395;50.738;7.122;2022-08-30T02:53:11;18.10;99.90
4763;DHT22;2395;50.738;7.122;2022-08-30T02:55:39;18.00;99.90
4763;DHT22;2395;50.738;7.122;2022-08-30T02:58:07;18.00;99.90
4763;DHT22;2395;50.738;7.122;2022-08-30T03:00:37;18.00;99.90
4763;DHT22;2395;50.738;7.122;2022-08-30T03:03:05;17.90;99.90
4763;DHT22;2395;50.738;7.122;2022-08-30T03:05:33;18.00;99.90
4763;DHT22;2395;50.738;7.122;2022-08-30T03:08:01;18.00;99.90
4763;DHT22;2395;50.738;7.122;2022-08-30T03:10:28;17.90;99.90
4763;DHT22;2395;50.738;7.122;2022-08-30T03:12:56;17.80;99.90
4763;DHT22;2395;50.738;7.122;2022-08-30T03:15:23;17.80;99.90
4763;DHT22;2395;50.738;7.122;2022-08-30T03:17:52;17.80;99.90
4763;DHT22;2395;50.738;7.122;2022-08-30T03:20:21;17.60;99.90
4763;DHT22;2395;50.738;7.122;2022-08-30T03:22:48;17.60;99.90
4763;DHT22;2395;50.738;7.122;2022-08-30T03:25:16;17.50;99.90
4763;DHT22;2395;50.738;7.122;2022-08-30T03:27:45;17.40;99.90
4763;DHT22;2395;50.738;7.122;2022-08-30T03:30:12;17.30;99.90
4763;DHT22;2395;50.738;7.122;2022-08-30T03:32:40;17.30;99.90
4763;DHT22;2395;50.738;7.122;2022-08-30T03:35:08;17.20;99.90
4763;DHT22;2395;50.738;7.122;2022-08-30T03:37:35;17.10;99.90
4763;DHT22;2395;50.738;7.122;2022-08-30T03:40:04;17.10;99.90
4763;DHT22;2395;50.738;7.122;2022-08-30T03:42:32;17.20;99.90
4763;DHT22;2395;50.738;7.122;2022-08-30T03:44:59;17.10;99.90
4763;DHT22;2395;50.738;7.122;2022-08-30T03:47:26;17.20;99.90
4763;DHT22;2395;50.738;7.122;2022-08-30T03:49:53;17.20;99.90
4763;DHT22;2395;50.738;7.122;2022-08-30T03:52:22;17.20;99.90
4763;DHT22;2395;50.738;7.122;2022-08-30T03:54:49;17.20;99.90
4763;DHT22;2395;50.738;7.122;2022-08-30T03:57:17;17.20;99.90
4763;DHT22;2395;50.738;7.122;2022-08-30T03:59:45;17.30;99.90
4763;DHT22;2395;50.738;7.122;2022-08-30T04:02:11;17.20;99.90
4763;DHT22;2395;50.738;7.122;2022-08-30T04:04:38;17.20;99.90
4763;DHT22;2395;50.738;7.122;2022-08-30T04:07:06;17.10;99.90
4763;DHT22;2395;50.738;7.122;2022-08-30T04:09:35;17.00;99.90
4763;DHT22;2395;50.738;7.122;2022-08-30T04:12:02;17.00;99.90
4763;DHT22;2395;50.738;7.122;2022-08-30T04:14:29;17.00;99.90
4763;DHT22;2395;50.738;7.122;2022-08-30T04:16:56;17.10;99.90
4763;DHT22;2395;50.738;7.122;2022-08-30T04:19:23;17.10;99.90
4763;DHT22;2395;50.738;7.122;2022-08-30T04:21:50;17.10;99.90
4763;DHT22;2395;50.738;7.122;2022-08-30T04:24:17;17.10;99.90
4763;DHT22;2395;50.738;7.122;2022-08-30T04:26:45;17.00;99.90
4763;DHT22;2395;50.738;7.122;2022-08-30T04:29:12;16.90;99.90
4763;DHT22;2395;50.738;7.122;2022-08-30T04:31:41;17.00;99.90
4763;DHT22;2395;50.738;7.122;2022-08-30T04:34:08;17.00;99.90
4763;DHT22;2395;50.738;7.122;2022-08-30T04:36:35;17.00;99.90
4763;DHT22;2395;50.738;7.122;2022-08-30T04:39:02;17.00;99.90
4763;DHT22;2395;50.738;7.122;2022-08-30T04:41:30;16.90;99.90
4763;DHT22;2395;50.738;7.122;2022-08-30T04:43:58;17.00;99.90
4763;DHT22;2395;50.738;7.122;2022-08-30T04:46:27;16.80;99.90
4763;DHT22;2395;50.738;7.122;2022-08-30T04:48:54;16.80;99.90
4763;DHT22;2395;50.738;7.122;2022-08-30T04:51:21;16.90;99.90
4763;DHT22;2395;50.738;7.122;2022-08-30T04:53:48;16.80;99.90
4763;DHT22;2395;50.738;7.122;2022-08-30T04:56:17;16.90;99.90
4763;DHT22;2395;50.738;7.122;2022-08-30T04:58:48;17.00;99.90
4763;DHT22;2395;50.738;7.122;2022-08-30T05:01:21;17.00;99.90
4763;DHT22;2395;50.738;7.122;2022-08-30T05:03:51;16.90;99.90
4763;DHT22;2395;50.738;7.122;2022-08-30T05:06:20;16.80;99.90
4763;DHT22;2395;50.738;7.122;2022-08-30T05:08:48;16.70;99.90
4763;DHT22;2395;50.738;7.122;2022-08-30T05:11:16;16.60;99.90
4763;DHT22;2395;50.738;7.122;2022-08-30T05:13:43;16.70;99.90
4763;DHT22;2395;50.738;7.122;2022-08-30T05:16:11;16.90;99.90
4763;DHT22;2395;50.738;7.122;2022-08-30T05:18:44;17.30;99.90
4763;DHT22;2395;50.738;7.122;2022-08-30T05:21:14;17.20;99.90
4763;DHT22;2395;50.738;7.122;2022-08-30T05:23:43;17.20;99.90
4763;DHT22;2395;50.738;7.122;2022-08-30T05:26:13;17.10;99.90
4763;DHT22;2395;50.738;7.122;2022-08-30T05:28:42;17.00;99.90
4763;DHT22;2395;50.738;7.122;2022-08-30T05:31:14;16.90;99.90
4763;DHT22;2395;50.738;7.122;2022-08-30T05:33:45;16.80;99.90
4763;DHT22;2395;50.738;7.122;2022-08-30T05:36:14;17.00;99.90
4763;DHT22;2395;50.738;7.122;2022-08-30T05:38:43;17.20;99.90
4763;DHT22;2395;50.738;7.122;2022-08-30T05:41:11;17.90;99.90
4763;DHT22;2395;50.738;7.122;2022-08-30T05:43:39;18.40;99.90
4763;DHT22;2395;50.738;7.122;2022-08-30T05:46:08;18.20;99.90
4763;DHT22;2395;50.738;7.122;2022-08-30T05:48:37;17.90;99.90
4763;DHT22;2395;50.738;7.122;2022-08-30T05:51:08;17.80;99.90
4763;DHT22;2395;50.738;7.122;2022-08-30T05:53:37;17.60;99.90
4763;DHT22;2395;50.738;7.122;2022-08-30T05:56:07;17.30;99.90
4763;DHT22;2395;50.738;7.122;2022-08-30T05:58:36;17.10;99.90
4763;DHT22;2395;50.738;7.122;2022-08-30T06:01:04;17.20;99.90
4763;DHT22;2395;50.738;7.122;2022-08-30T06:03:32;17.60;99.90
4763;DHT22;2395;50.738;7.122;2022-08-30T06:06:00;18.30;99.90
4763;DHT22;2395;50.738;7.122;2022-08-30T06:08:29;18.40;99.90
4763;DHT22;2395;50.738;7.122;2022-08-30T06:10:56;18.00;99.90
4763;DHT22;2395;50.738;7.122;2022-08-30T06:13:23;18.00;99.90
4763;DHT22;2395;50.738;7.122;2022-08-30T06:15:50;17.50;99.90
4763;DHT22;2395;50.738;7.122;2022-08-30T06:18:17;17.60;99.90
4763;DHT22;2395;50.738;7.122;2022-08-30T06:20:44;17.80;99.90
4763;DHT22;2395;50.738;7.122;2022-08-30T06:23:13;17.60;99.90
4763;DHT22;2395;50.738;7.122;2022-08-30T06:25:43;17.90;99.90
4763;DHT22;2395;50.738;7.122;2022-08-30T06:28:11;17.80;99.90
4763;DHT22;2395;50.738;7.122;2022-08-30T06:30:40;18.20;99.90
4763;DHT22;2395;50.738;7.122;2022-08-30T06:33:08;18.40;99.90
4763;DHT22;2395;50.738;7.122;2022-08-30T06:35:36;18.40;99.90
4763;DHT22;2395;50.738;7.122;2022-08-30T06:38:04;18.50;99.90
4763;DHT22;2395;50.738;7.122;2022-08-30T06:40:31;18.80;99.90
4763;DHT22;2395;50.738;7.122;2022-08-30T06:42:59;19.10;99.90
4763;DHT22;2395;50.738;7.122;2022-08-30T06:45:26;18.70;99.90
4763;DHT22;2395;50.738;7.122;2022-08-30T06:47:55;18.50;99.90
4763;DHT22;2395;50.738;7.122;2022-08-30T06:50:23;18.60;99.90
4763;DHT22;2395;50.738;7.122;2022-08-30T06:52:50;18.90;99.90
4763;DHT22;2395;50.738;7.122;2022-08-30T06:55:18;19.10;99.90
4763;DHT22;2395;50.738;7.122;2022-08-30T06:57:45;19.20;99.90
4763;DHT22;2395;50.738;7.122;2022-08-30T07:00:15;19.50;99.90
4763;DHT22;2395;50.738;7.122;2022-08-30T07:02:43;19.60;99.90
4763;DHT22;2395;50.738;7.122;2022-08-30T07:05:10;19.70;99.90
4763;DHT22;2395;50.738;7.122;2022-08-30T07:07:38;19.60;99.90
4763;DHT22;2395;50.738;7.122;2022-08-30T07:10:07;19.70;99.90
4763;DHT22;2395;50.738;7.122;2022-08-30T07:12:35;19.90;99.90
4763;DHT22;2395;50.738;7.122;2022-08-30T07:15:03;19.70;99.90
4763;DHT22;2395;50.738;7.122;2022-08-30T07:17:32;19.90;99.90
4763;DHT22;2395;50.738;7.122;2022-08-30T07:20:18;19.70;99.90
4763;DHT22;2395;50.738;7.122;2022-08-30T07:22:47;19.60;99.90
4763;DHT22;2395;50.738;7.122;2022-08-30T07:25:18;19.60;99.90
4763;DHT22;2395;50.738;7.122;2022-08-30T07:27:45;19.70;99.90
4763;DHT22;2395;50.738;7.122;2022-08-30T07:30:12;19.80;99.90
4763;DHT22;2395;50.738;7.122;2022-08-30T07:32:40;20.20;99.90
4763;DHT22;2395;50.738;7.122;2022-08-30T07:35:07;20.50;99.90
4763;DHT22;2395;50.738;7.122;2022-08-30T07:37:35;20.70;99.90
4763;DHT22;2395;50.738;7.122;2022-08-30T07:40:03;20.80;99.90
4763;DHT22;2395;50.738;7.122;2022-08-30T07:42:31;20.90;99.90
4763;DHT22;2395;50.738;7.122;2022-08-30T07:44:58;21.00;99.90
4763;DHT22;2395;50.738;7.122;2022-08-30T07:47:27;21.10;99.90
4763;DHT22;2395;50.738;7.122;2022-08-30T07:49:58;21.30;99.90
4763;DHT22;2395;50.738;7.122;2022-08-30T07:52:25;21.50;99.90
4763;DHT22;2395;50.738;7.122;2022-08-30T07:54:53;21.30;99.90
4763;DHT22;2395;50.738;7.122;2022-08-30T07:57:21;21.30;99.90
4763;DHT22;2395;50.738;7.122;2022-08-30T07:59:49;21.40;99.90
4763;DHT22;2395;50.738;7.122;2022-08-30T08:02:17;21.40;99.90
4763;DHT22;2395;50.738;7.122;2022-08-30T08:04:44;21.40;99.90
4763;DHT22;2395;50.738;7.122;2022-08-30T08:07:14;21.40;99.90
4763;DHT22;2395;50.738;7.122;2022-08-30T08:09:41;21.50;99.90
4763;DHT22;2395;50.738;7.122;2022-08-30T08:12:08;21.60;99.90
4763;DHT22;2395;50.738;7.122;2022-08-30T08:14:36;21.70;99.90
4763;DHT22;2395;50.738;7.122;2022-08-30T08:17:04;21.70;99.90
4763;DHT22;2395;50.738;7.122;2022-08-30T08:19:31;21.90;99.90
4763;DHT22;2395;50.738;7.122;2022-08-30T08:21:58;22.10;99.90
4763;DHT22;2395;50.738;7.122;2022-08-30T08:24:26;22.40;99.90
4763;DHT22;2395;50.738;7.122;2022-08-30T08:26:53;22.70;99.90
4763;DHT22;2395;50.738;7.122;2022-08-30T08:29:21;22.70;99.90
4763;DHT22;2395;50.738;7.122;2022-08-30T08:31:48;22.70;99.90
4763;DHT22;2395;50.738;7.122;2022-08-30T08:34:15;22.80;99.90
4763;DHT22;2395;50.738;7.122;2022-08-30T08:36:48;22.80;99.90
4763;DHT22;2395;50.738;7.122;2022-08-30T08:39:16;22.80;99.90
4763;DHT22;2395;50.738;7.122;2022-08-30T08:41:53;22.80;99.90
4763;DHT22;2395;50.738;7.122;2022-08-30T08:44:35;23.10;99.90
4763;DHT22;2395;50.738;7.122;2022-08-30T08:47:14;23.30;99.90
4763;DHT22;2395;50.738;7.122;2022-08-30T08:49:45;23.20;99.90
4763;DHT22;2395;50.738;7.122;2022-08-30T08:52:20;23.20;99.90
4763;DHT22;2395;50.738;7.122;2022-08-30T08:55:12;23.20;99.90
4763;DHT22;2395;50.738;7.122;2022-08-30T08:57:43;23.30;99.90
4763;DHT22;2395;50.738;7.122;2022-08-30T09:00:12;23.20;99.90
4763;DHT22;2395;50.738;7.122;2022-08-30T09:02:43;23.40;99.90
4763;DHT22;2395;50.738;7.122;2022-08-30T09:05:15;23.50;99.90
4763;DHT22;2395;50.738;7.122;2022-08-30T09:07:49;23.70;99.90
4763;DHT22;2395;50.738;7.122;2022-08-30T09:10:20;24.00;99.90
4763;DHT22;2395;50.738;7.122;2022-08-30T09:12:50;24.20;99.90
4763;DHT22;2395;50.738;7.122;2022-08-30T09:15:21;24.40;99.90
4763;DHT22;2395;50.738;7.122;2022-08-30T09:17:53;24.40;99.90
4763;DHT22;2395;50.738;7.122;2022-08-30T09:20:28;24.30;99.90
4763;DHT22;2395;50.738;7.122;2022-08-30T09:22:58;24.40;99.90
4763;DHT22;2395;50.738;7.122;2022-08-30T09:25:50;24.60;99.90
4763;DHT22;2395;50.738;7.122;2022-08-30T09:28:24;24.60;99.90
4763;DHT22;2395;50.738;7.122;2022-08-30T09:31:00;24.70;99.90
4763;DHT22;2395;50.738;7.122;2022-08-30T09:33:30;24.70;99.90
4763;DHT22;2395;50.738;7.122;2022-08-30T09:36:09;24.80;99.90
4763;DHT22;2395;50.738;7.122;2022-08-30T09:38:44;25.00;99.90
4763;DHT22;2395;50.738;7.122;2022-08-30T09:41:35;25.10;99.90
4763;DHT22;2395;50.738;7.122;2022-08-30T09:44:10;25.30;99.90
4763;DHT22;2395;50.738;7.122;2022-08-30T09:46:44;25.30;99.90
4763;DHT22;2395;50.738;7.122;2022-08-30T09:49:31;25.60;99.90
4763;DHT22;2395;50.738;7.122;2022-08-30T09:52:11;25.80;99.90
4763;DHT22;2395;50.738;7.122;2022-08-30T09:54:52;25.70;99.90
4763;DHT22;2395;50.738;7.122;2022-08-30T09:57:33;25.80;99.90
4763;DHT22;2395;50.738;7.122;2022-08-30T10:00:09;25.90;99.90
4763;DHT22;2395;50.738;7.122;2022-08-30T10:05:51;26.20;99.90
4763;DHT22;2395;50.738;7.122;2022-08-30T10:08:33;26.10;99.90
4763;DHT22;2395;50.738;7.122;2022-08-30T10:11:10;26.50;99.90
4763;DHT22;2395;50.738;7.122;2022-08-30T10:13:59;26.50;99.90
4763;DHT22;2395;50.738;7.122;2022-08-30T10:16:50;26.60;99.90
4763;DHT22;2395;50.738;7.122;2022-08-30T10:19:34;26.70;99.90
4763;DHT22;2395;50.738;7.122;2022-08-30T10:22:13;26.80;99.90
4763;DHT22;2395;50.738;7.122;2022-08-30T10:24:49;27.00;99.90
4763;DHT22;2395;50.738;7.122;2022-08-30T10:27:25;27.00;99.90
4763;DHT22;2395;50.738;7.122;2022-08-30T10:29:59;27.20;99.90
4763;DHT22;2395;50.738;7.122;2022-08-30T10:32:34;27.20;99.90
4763;DHT22;2395;50.738;7.122;2022-08-30T10:35:09;27.30;99.70
4763;DHT22;2395;50.738;7.122;2022-08-30T10:37:43;27.40;99.00
4763;DHT22;2395;50.738;7.122;2022-08-30T10:40:20;27.30;99.40
4763;DHT22;2395;50.738;7.122;2022-08-30T10:43:17;27.40;99.90
4763;DHT22;2395;50.738;7.122;2022-08-30T10:45:51;27.50;99.50
4763;DHT22;2395;50.738;7.122;2022-08-30T10:48:28;27.60;98.90
4763;DHT22;2395;50.738;7.122;2022-08-30T10:51:01;27.80;99.00
4763;DHT22;2395;50.738;7.122;2022-08-30T10:53:40;28.00;98.70
4763;DHT22;2395;50.738;7.122;2022-08-30T10:56:13;27.90;97.90
4763;DHT22;2395;50.738;7.122;2022-08-30T10:58:45;27.90;97.40
4763;DHT22;2395;50.738;7.122;2022-08-30T11:01:44;27.90;97.90
4763;DHT22;2395;50.738;7.122;2022-08-30T11:04:44;27.60;97.70
4763;DHT22;2395;50.738;7.122;2022-08-30T11:07:36;27.50;96.70
4763;DHT22;2395;50.738;7.122;2022-08-30T11:10:22;27.40;96.90
4763;DHT22;2395;50.738;7.122;2022-08-30T11:13:10;27.30;96.80
4763;DHT22;2395;50.738;7.122;2022-08-30T11:15:54;27.60;97.10
4763;DHT22;2395;50.738;7.122;2022-08-30T11:18:24;27.50;95.90
4763;DHT22;2395;50.738;7.122;2022-08-30T11:21:16;27.50;96.00
4763;DHT22;2395;50.738;7.122;2022-08-30T11:24:01;27.40;96.50
4763;DHT22;2395;50.738;7.122;2022-08-30T11:26:49;27.20;97.50
4763;DHT22;2395;50.738;7.122;2022-08-30T11:29:34;27.20;96.40
4763;DHT22;2395;50.738;7.122;2022-08-30T11:32:24;27.10;96.00
4763;DHT22;2395;50.738;7.122;2022-08-30T11:35:41;27.20;96.40
4763;DHT22;2395;50.738;7.122;2022-08-30T11:38:19;27.60;95.40
4763;DHT22;2395;50.738;7.122;2022-08-30T11:41:36;28.10;95.20
4763;DHT22;2395;50.738;7.122;2022-08-30T11:44:27;28.90;93.90
4763;DHT22;2395;50.738;7.122;2022-08-30T11:46:57;29.20;92.10
4763;DHT22;2395;50.738;7.122;2022-08-30T11:49:45;29.20;91.30
4763;DHT22;2395;50.738;7.122;2022-08-30T11:52:33;29.50;91.60
4763;DHT22;2395;50.738;7.122;2022-08-30T11:58:30;29.40;91.10
4763;DHT22;2395;50.738;7.122;2022-08-30T12:01:14;29.20;90.70
4763;DHT22;2395;50.738;7.122;2022-08-30T12:03:53;29.20;91.10
4763;DHT22;2395;50.738;7.122;2022-08-30T12:06:53;29.20;90.20
4763;DHT22;2395;50.738;7.122;2022-08-30T12:12:48;29.80;89.20
4763;DHT22;2395;50.738;7.122;2022-08-30T12:18:29;29.90;86.70
4763;DHT22;2395;50.738;7.122;2022-08-30T12:21:14;29.70;86.30
4763;DHT22;2395;50.738;7.122;2022-08-30T12:23:53;29.70;88.00
4763;DHT22;2395;50.738;7.122;2022-08-30T12:26:32;29.50;86.20
4763;DHT22;2395;50.738;7.122;2022-08-30T12:29:11;29.20;87.00
4763;DHT22;2395;50.738;7.122;2022-08-30T12:31:44;29.30;87.70
4763;DHT22;2395;50.738;7.122;2022-08-30T12:34:22;29.40;88.40
4763;DHT22;2395;50.738;7.122;2022-08-30T12:36:55;29.60;86.60
4763;DHT22;2395;50.738;7.122;2022-08-30T12:39:26;30.00;86.80
4763;DHT22;2395;50.738;7.122;2022-08-30T12:41:55;30.40;85.90
4763;DHT22;2395;50.738;7.122;2022-08-30T12:44:37;30.80;84.50
4763;DHT22;2395;50.738;7.122;2022-08-30T12:47:05;31.20;83.60
4763;DHT22;2395;50.738;7.122;2022-08-30T12:49:35;31.20;81.60
4763;DHT22;2395;50.738;7.122;2022-08-30T12:52:19;30.90;80.60
4763;DHT22;2395;50.738;7.122;2022-08-30T12:54:48;30.50;80.00
4763;DHT22;2395;50.738;7.122;2022-08-30T12:57:35;30.60;81.50
4763;DHT22;2395;50.738;7.122;2022-08-30T13:00:07;30.90;80.10
4763;DHT22;2395;50.738;7.122;2022-08-30T13:02:45;31.10;79.30
4763;DHT22;2395;50.738;7.122;2022-08-30T13:05:46;31.00;77.20
4763;DHT22;2395;50.738;7.122;2022-08-30T13:08:15;31.00;79.00
4763;DHT22;2395;50.738;7.122;2022-08-30T13:10:57;31.10;76.80
4763;DHT22;2395;50.738;7.122;2022-08-30T13:13:30;31.30;78.60
4763;DHT22;2395;50.738;7.122;2022-08-30T13:16:23;31.50;78.40
4763;DHT22;2395;50.738;7.122;2022-08-30T13:18:54;32.00;74.30
4763;DHT22;2395;50.738;7.122;2022-08-30T13:21:50;32.20;75.70
4763;DHT22;2395;50.738;7.122;2022-08-30T13:24:18;32.10;74.90
4763;DHT22;2395;50.738;7.122;2022-08-30T13:26:45;32.40;74.90
4763;DHT22;2395;50.738;7.122;2022-08-30T13:29:15;32.70;73.40
4763;DHT22;2395;50.738;7.122;2022-08-30T13:31:43;33.00;72.10
4763;DHT22;2395;50.738;7.122;2022-08-30T13:34:11;33.00;70.70
4763;DHT22;2395;50.738;7.122;2022-08-30T13:36:42;33.00;71.70
4763;DHT22;2395;50.738;7.122;2022-08-30T13:39:14;33.10;70.20
4763;DHT22;2395;50.738;7.122;2022-08-30T13:41:41;32.80;70.20
4763;DHT22;2395;50.738;7.122;2022-08-30T13:44:08;32.40;69.30
4763;DHT22;2395;50.738;7.122;2022-08-30T13:46:38;32.20;70.80
4763;DHT22;2395;50.738;7.122;2022-08-30T13:49:08;32.30;70.80
4763;DHT22;2395;50.738;7.122;2022-08-30T13:51:43;32.30;70.20
4763;DHT22;2395;50.738;7.122;2022-08-30T13:54:13;32.50;69.30
4763;DHT22;2395;50.738;7.122;2022-08-30T13:56:40;32.80;69.90
4763;DHT22;2395;50.738;7.122;2022-08-30T13:59:07;33.00;69.10
4763;DHT22;2395;50.738;7.122;2022-08-30T14:01:34;32.90;67.60
4763;DHT22;2395;50.738;7.122;2022-08-30T14:04:02;32.60;67.60
4763;DHT22;2395;50.738;7.122;2022-08-30T14:06:29;32.50;67.00
4763;DHT22;2395;50.738;7.122;2022-08-30T14:08:56;32.60;67.20
4763;DHT22;2395;50.738;7.122;2022-08-30T14:11:24;32.90;68.10
4763;DHT22;2395;50.738;7.122;2022-08-30T14:13:51;33.30;67.20
4763;DHT22;2395;50.738;7.122;2022-08-30T14:16:18;33.30;65.50
4763;DHT22;2395;50.738;7.122;2022-08-30T14:18:45;33.60;67.70
4763;DHT22;2395;50.738;7.122;2022-08-30T14:21:12;33.60;65.30
4763;DHT22;2395;50.738;7.122;2022-08-30T14:23:39;33.30;65.20
4763;DHT22;2395;50.738;7.122;2022-08-30T14:26:10;33.10;65.10
4763;DHT22;2395;50.738;7.122;2022-08-30T14:28:43;32.60;65.90
4763;DHT22;2395;50.738;7.122;2022-08-30T14:31:11;32.00;66.40
4763;DHT22;2395;50.738;7.122;2022-08-30T14:33:38;31.80;68.60
4763;DHT22;2395;50.738;7.122;2022-08-30T14:36:06;32.40;67.70
4763;DHT22;2395;50.738;7.122;2022-08-30T14:38:34;33.10;66.20
4763;DHT22;2395;50.738;7.122;2022-08-30T14:41:02;33.40;66.30
4763;DHT22;2395;50.738;7.122;2022-08-30T14:43:29;33.40;65.60
4763;DHT22;2395;50.738;7.122;2022-08-30T14:45:58;33.10;65.40
4763;DHT22;2395;50.738;7.122;2022-08-30T14:48:26;33.50;66.00
4763;DHT22;2395;50.738;7.122;2022-08-30T14:50:53;33.30;64.20
4763;DHT22;2395;50.738;7.122;2022-08-30T14:53:20;33.40;64.00
4763;DHT22;2395;50.738;7.122;2022-08-30T14:55:47;33.70;63.50
4763;DHT22;2395;50.738;7.122;2022-08-30T14:58:14;34.10;62.10
4763;DHT22;2395;50.738;7.122;2022-08-30T15:00:43;34.20;61.40
4763;DHT22;2395;50.738;7.122;2022-08-30T15:03:17;34.90;61.60
4763;DHT22;2395;50.738;7.122;2022-08-30T15:05:48;35.20;60.20
4763;DHT22;2395;50.738;7.122;2022-08-30T15:08:15;35.60;59.20
4763;DHT22;2395;50.738;7.122;2022-08-30T15:10:43;35.80;58.90
4763;DHT22;2395;50.738;7.122;2022-08-30T15:13:11;36.10;58.70
4763;DHT22;2395;50.738;7.122;2022-08-30T15:15:41;35.60;58.20
4763;DHT22;2395;50.738;7.122;2022-08-30T15:18:08;35.40;58.30
4763;DHT22;2395;50.738;7.122;2022-08-30T15:20:43;36.00;58.30
4763;DHT22;2395;50.738;7.122;2022-08-30T15:23:11;36.70;58.30
4763;DHT22;2395;50.738;7.122;2022-08-30T15:25:38;37.20;56.70
4763;DHT22;2395;50.738;7.122;2022-08-30T15:28:05;37.50;56.60
4763;DHT22;2395;50.738;7.122;2022-08-30T15:30:32;37.20;55.60
4763;DHT22;2395;50.738;7.122;2022-08-30T15:32:59;36.40;55.40
4763;DHT22;2395;50.738;7.122;2022-08-30T15:35:26;35.90;55.90
4763;DHT22;2395;50.738;7.122;2022-08-30T15:37:55;34.80;56.70
4763;DHT22;2395;50.738;7.122;2022-08-30T15:40:22;34.50;57.50
4763;DHT22;2395;50.738;7.122;2022-08-30T15:42:49;34.30;57.00
4763;DHT22;2395;50.738;7.122;2022-08-30T15:45:16;34.10;57.40
4763;DHT22;2395;50.738;7.122;2022-08-30T15:47:43;33.80;57.80
4763;DHT22;2395;50.738;7.122;2022-08-30T15:50:10;33.90;58.10
4763;DHT22;2395;50.738;7.122;2022-08-30T15:52:37;34.60;57.50
4763;DHT22;2395;50.738;7.122;2022-08-30T15:55:07;35.50;57.20
4763;DHT22;2395;50.738;7.122;2022-08-30T15:57:35;35.80;56.00
4763;DHT22;2395;50.738;7.122;2022-08-30T16:00:03;35.50;55.80
4763;DHT22;2395;50.738;7.122;2022-08-30T16:02:31;35.20;56.90
4763;DHT22;2395;50.738;7.122;2022-08-30T16:04:58;35.30;56.30
4763;DHT22;2395;50.738;7.122;2022-08-30T16:07:25;35.70;56.10
4763;DHT22;2395;50.738;7.122;2022-08-30T16:09:52;36.00;56.50
4763;DHT22;2395;50.738;7.122;2022-08-30T16:12:21;36.00;56.00
4763;DHT22;2395;50.738;7.122;2022-08-30T16:14:48;35.40;54.90
4763;DHT22;2395;50.738;7.122;2022-08-30T16:17:14;35.10;56.00
4763;DHT22;2395;50.738;7.122;2022-08-30T16:19:41;35.60;55.70
4763;DHT22;2395;50.738;7.122;2022-08-30T16:22:08;36.10;54.70
4763;DHT22;2395;50.738;7.122;2022-08-30T16:24:36;36.20;54.60
4763;DHT22;2395;50.738;7.122;2022-08-30T16:27:04;36.00;54.70
4763;DHT22;2395;50.738;7.122;2022-08-30T16:29:33;36.40;54.00
4763;DHT22;2395;50.738;7.122;2022-08-30T16:32:00;36.70;53.70
4763;DHT22;2395;50.738;7.122;2022-08-30T16:34:27;36.60;53.80
4763;DHT22;2395;50.738;7.122;2022-08-30T16:36:54;36.70;53.10
4763;DHT22;2395;50.738;7.122;2022-08-30T16:39:21;36.50;53.10
4763;DHT22;2395;50.738;7.122;2022-08-30T16:41:48;36.00;53.30